»·PEaware :: UAL2081 KSFO-KSMF

UAL2081 :: KSFO-KSMF

FLIGHT INFORMATION

Flight Status: Arrived
Operator:
United Airlines
More flights by this operator :: More flights under this callsign
Pilot: Henderson P. (1210)
Aircraft: AIRBUS A320
(A320)
More flights by this aircraft type
Origin: KSFO San Francisco Intl
United States
Destination: KSMF Sacramento Intl
United States
More flights between these airports :: More routes between these airports
Route: +NIITE3 NIITE REBAS CCR CCR2
File this flight plan on PilotEdge
Remarks:
Altitude:
(Current/Filed)
10,000ft
Speed:
(Current/Filed)
290kts
Departed: 12-Oct-18 09:52 PM
Arrived: 12-Oct-18 10:16 PM
Distance/Time
Traveled:
74nm/0:24
Distance/Time
To Go:
Arrived

Flight Plot

Page will automatically refresh every two minutes.

Flight plan parsing failed; only flown route is shown


Map Options




Map Legend


Flown Route
Filed Route
Departure Airport
Arrival Airport
Navaid (VOR, NDB)
Fix

Horizontal Profiles

Position Reports

Time Latitude Longitude Heading Altitude Ground
Speed
12-Oct-18 20:47 37.621079 -122.390665 119 27ft 0kts
12-Oct-18 20:48 37.621079 -122.390665 119 27ft 0kts
12-Oct-18 20:49 37.621079 -122.390665 119 27ft 0kts
12-Oct-18 20:50 37.621079 -122.390665 119 27ft 0kts
12-Oct-18 20:51 37.621079 -122.390665 119 27ft 0kts
12-Oct-18 20:52 37.621079 -122.390665 119 27ft 0kts
12-Oct-18 20:53 37.621079 -122.390665 119 27ft 0kts
12-Oct-18 20:54 37.621079 -122.390665 119 27ft 0kts
12-Oct-18 20:55 37.621079 -122.390665 119 27ft 0kts
12-Oct-18 20:56 37.621079 -122.390665 119 27ft 0kts
12-Oct-18 20:57 37.621079 -122.390665 119 27ft 0kts
12-Oct-18 20:58 37.621079 -122.390665 119 27ft 0kts
12-Oct-18 20:59 37.621079 -122.390665 119 27ft 0kts
12-Oct-18 21:00 37.621079 -122.390665 119 27ft 0kts
12-Oct-18 21:01 37.621079 -122.390665 119 27ft 0kts
12-Oct-18 21:02 37.621079 -122.390665 119 27ft 0kts
12-Oct-18 21:03 37.621079 -122.390665 119 27ft 0kts
12-Oct-18 21:04 37.621079 -122.390665 119 27ft 0kts
12-Oct-18 21:05 37.621079 -122.390665 119 27ft 0kts
12-Oct-18 21:06 37.621079 -122.390665 119 27ft 0kts
12-Oct-18 21:07 37.621079 -122.390665 119 27ft 0kts
12-Oct-18 21:08 37.621079 -122.390665 119 27ft 0kts
12-Oct-18 21:09 37.621079 -122.390665 119 27ft 0kts
12-Oct-18 21:10 37.621079 -122.390665 119 27ft 0kts
12-Oct-18 21:11 37.621079 -122.390665 119 27ft 0kts
12-Oct-18 21:12 37.621079 -122.390665 119 27ft 0kts
12-Oct-18 21:13 37.621079 -122.390665 119 27ft 0kts
12-Oct-18 21:14 37.621079 -122.390665 119 27ft 0kts
12-Oct-18 21:15 37.621079 -122.390665 119 27ft 0kts
12-Oct-18 21:16 37.621079 -122.390665 119 27ft 0kts
12-Oct-18 21:17 37.621079 -122.390665 119 27ft 0kts
12-Oct-18 21:18 37.621079 -122.390665 119 27ft 0kts
12-Oct-18 21:19 37.621079 -122.390665 119 27ft 0kts
12-Oct-18 21:20 37.621079 -122.390665 119 27ft 0kts
12-Oct-18 21:21 37.621079 -122.390665 119 27ft 0kts
12-Oct-18 21:22 37.621079 -122.390665 119 27ft 0kts
12-Oct-18 21:23 37.621079 -122.390665 119 27ft 0kts
12-Oct-18 21:24 37.621079 -122.390665 119 27ft 0kts
12-Oct-18 21:25 37.621079 -122.390665 119 27ft 0kts
12-Oct-18 21:26 37.621079 -122.390665 119 27ft 0kts
12-Oct-18 21:27 37.621079 -122.390665 119 27ft 0kts
12-Oct-18 21:28 37.621079 -122.390665 119 27ft 0kts
12-Oct-18 21:29 37.621079 -122.390665 119 27ft 0kts
12-Oct-18 21:30 37.621079 -122.390665 119 27ft 0kts
12-Oct-18 21:31 37.621079 -122.390665 119 27ft 0kts
12-Oct-18 21:32 37.621079 -122.390665 119 27ft 0kts
12-Oct-18 21:33 37.621079 -122.390665 119 27ft 0kts
12-Oct-18 21:34 37.621079 -122.390665 119 27ft 0kts
12-Oct-18 21:35 37.621079 -122.390665 119 27ft 0kts
12-Oct-18 21:36 37.621079 -122.390665 119 27ft 0kts
12-Oct-18 21:37 37.621079 -122.390665 119 27ft 0kts
12-Oct-18 21:38 37.621079 -122.390665 119 27ft 0kts
12-Oct-18 21:39 37.621308 -122.391323 100 27ft 2kts
12-Oct-18 21:40 37.621128 -122.391806 27 27ft 0kts
12-Oct-18 21:41 37.621128 -122.391806 27 27ft 0kts
12-Oct-18 21:42 37.621129 -122.391805 27 27ft 0kts
12-Oct-18 21:43 37.621420 -122.391613 27 27ft 5kts
12-Oct-18 21:44 37.622528 -122.388869 119 27ft 13kts
12-Oct-18 21:45 37.620412 -122.383815 117 27ft 17kts
12-Oct-18 21:46 37.617906 -122.379522 165 27ft 18kts
12-Oct-18 21:47 37.613398 -122.381785 207 27ft 17kts
12-Oct-18 21:48 37.609465 -122.384641 210 27ft 11kts
12-Oct-18 21:49 37.608488 -122.383833 116 27ft 0kts
12-Oct-18 21:50 37.608488 -122.383832 116 27ft 0kts
12-Oct-18 21:51 37.608488 -122.383831 116 27ft 0kts
12-Oct-18 21:52 37.608457 -122.383754 117 27ft 0kts
12-Oct-18 21:53 37.608229 -122.383192 116 27ft 6kts
12-Oct-18 21:54 37.613890 -122.378947 27 27ft 108kts
12-Oct-18 21:55 37.648986 -122.349483 44 2222ft 152kts
12-Oct-18 21:56 37.685995 -122.310511 12 3793ft 204kts
12-Oct-18 21:57 37.746700 -122.337479 336 5938ft 265kts
12-Oct-18 21:58 37.817541 -122.372758 336 9231ft 281kts
12-Oct-18 21:59 37.892551 -122.385914 7 11031ft 333kts
12-Oct-18 22:00 37.965444 -122.307109 68 11013ft 380kts
12-Oct-18 22:01 38.002690 -122.182056 67 11015ft 379kts
12-Oct-18 22:02 38.042334 -122.057895 59 11027ft 379kts
12-Oct-18 22:03 38.121583 -121.972037 35 11041ft 378kts
12-Oct-18 22:04 38.202556 -121.894573 36 10593ft 336kts
12-Oct-18 22:05 38.271961 -121.828017 35 9795ft 296kts
12-Oct-18 22:06 38.336697 -121.765752 34 8679ft 290kts
12-Oct-18 22:07 38.408678 -121.726857 6 7393ft 282kts
12-Oct-18 22:08 38.484970 -121.710629 8 6088ft 274kts
12-Oct-18 22:09 38.554745 -121.695169 8 4915ft 270kts
12-Oct-18 22:10 38.628232 -121.683263 353 3990ft 251kts
12-Oct-18 22:11 38.688736 -121.691429 352 3991ft 195kts
12-Oct-18 22:12 38.734129 -121.693966 359 3566ft 147kts
12-Oct-18 22:13 38.774429 -121.690761 19 2909ft 142kts
12-Oct-18 22:14 38.797441 -121.652491 83 1867ft 140kts
12-Oct-18 22:15 38.783415 -121.609742 144 1171ft 132kts
12-Oct-18 22:16 38.748486 -121.600373 182 980ft 131kts
12-Oct-18 22:17 38.712427 -121.601075 181 188ft 128kts
12-Oct-18 22:18 38.691667 -121.601395 180 42ft 26kts
12-Oct-18 22:19 38.692387 -121.598715 0 42ft 18kts
12-Oct-18 22:20 38.696993 -121.597683 89 42ft 13kts
12-Oct-18 22:21 38.696941 -121.590843 91 42ft 24kts
12-Oct-18 22:22 38.695198 -121.586158 181 42ft 14kts
12-Oct-18 22:23 38.694397 -121.586979 270 42ft 1kts
12-Oct-18 22:24 38.694397 -121.587009 271 42ft 0kts
12-Oct-18 22:25 38.694397 -121.587009 271 42ft 0kts
12-Oct-18 22:26 38.694397 -121.587009 271 42ft 0kts

Navigation Log

Ident Type
Flight plan parsing failed, navigation log unavailable